createdAt,value
2023-05-01T00:28:02.060Z,2.10
2023-05-01T00:30:55.756Z,3.30
2023-05-01T00:40:04.399Z,3.30
2023-05-01T00:43:19.345Z,3.40
2023-05-01T00:47:29.641Z,3.10
2023-05-01T00:51:19.070Z,4.30
2023-05-01T00:54:48.974Z,5.70
2023-05-01T00:58:47.525Z,4.20
2023-05-01T01:14:51.794Z,3.60
2023-05-01T01:23:18.840Z,4.40
2023-05-01T01:27:47.710Z,4.40
2023-05-01T01:31:46.249Z,5.70
2023-05-01T01:35:57.991Z,5.00
2023-05-01T01:39:25.861Z,5.60
2023-05-01T01:43:12.076Z,4.30
2023-05-01T01:46:51.526Z,5.00
2023-05-01T01:50:22.540Z,3.80
2023-05-01T01:53:59.118Z,3.00
2023-05-01T01:57:59.332Z,4.30
2023-05-01T02:01:25.302Z,4.00
2023-05-01T02:05:51.587Z,4.00
2023-05-01T02:10:08.471Z,3.30
2023-05-01T02:13:30.303Z,3.70
2023-05-01T02:17:10.243Z,3.70
2023-05-01T02:20:37.791Z,5.60
2023-05-01T02:24:11.915Z,5.10
2023-05-01T02:27:21.372Z,3.50
2023-05-01T02:31:21.516Z,5.40
2023-05-01T02:34:17.937Z,3.40
2023-05-01T02:37:52.748Z,3.30
2023-05-01T02:41:36.468Z,3.10
2023-05-01T02:45:28.087Z,4.30
2023-05-01T02:49:14.439Z,4.90
2023-05-01T02:52:28.243Z,3.70
2023-05-01T02:56:30.983Z,3.60
2023-05-01T02:59:53.673Z,4.20
2023-05-01T03:03:24.664Z,3.50
2023-05-01T03:06:19.761Z,3.60
2023-05-01T03:09:30.608Z,4.90
2023-05-01T03:12:03.604Z,4.60
2023-05-01T03:14:55.101Z,3.70
2023-05-01T03:18:47.502Z,4.50
2023-05-01T03:22:01.344Z,3.90
2023-05-01T03:25:35.054Z,3.30
2023-05-01T03:28:33.784Z,3.20
2023-05-01T03:31:43.108Z,4.00
2023-05-01T03:34:47.485Z,2.60
2023-05-01T03:37:46.627Z,3.60
2023-05-01T03:41:26.699Z,3.40
2023-05-01T03:44:59.775Z,3.00
2023-05-01T03:49:08.369Z,2.80
2023-05-01T03:52:41.749Z,2.90
2023-05-01T03:55:38.170Z,3.80
2023-05-01T03:58:46.121Z,4.60
2023-05-01T04:02:22.249Z,4.60
2023-05-01T04:06:00.632Z,3.20
2023-05-01T04:09:34.672Z,3.40
2023-05-01T04:12:47.406Z,3.60
2023-05-01T04:15:45.002Z,2.80
2023-05-01T04:19:02.191Z,2.40
2023-05-01T04:22:14.714Z,3.60
2023-05-01T04:26:18.309Z,3.40
2023-05-01T04:29:50.077Z,3.90
2023-05-01T04:33:15.683Z,3.80
2023-05-01T04:36:57.096Z,3.10
2023-05-01T04:40:55.127Z,2.20
2023-05-01T04:44:44.136Z,2.70
2023-05-01T04:48:46.134Z,3.50
2023-05-01T04:51:33.015Z,3.00
2023-05-01T04:55:08.401Z,3.70
2023-05-01T05:02:46.645Z,2.80
2023-05-01T05:53:29.435Z,6.90
2023-05-01T05:56:34.311Z,5.40
2023-05-01T05:59:36.698Z,4.40
2023-05-01T06:33:36.798Z,3.70
2023-05-01T07:00:27.692Z,3.90
2023-05-01T07:07:07.426Z,4.20
2023-05-01T07:22:04.407Z,4.00
2023-05-01T13:58:34.747Z,1.30
2023-05-01T14:05:56.496Z,1.70
2023-05-01T14:58:26.741Z,2.20
2023-05-01T15:01:15.494Z,1.40
2023-05-01T15:03:50.877Z,1.10
2023-05-01T15:06:30.464Z,1.30
2023-05-01T15:09:07.047Z,1.60
2023-05-01T15:11:59.104Z,1.30
2023-05-01T15:15:09.959Z,1.90
2023-05-01T16:22:51.036Z,1.60
